Time;durP1;ratioP1;P1;durP2;ratioP2;P2;SDS_P1;SDS_P2;PMS_P1;PMS_P2;Temp;Humidity;BMP_temperature;BMP_pressure;BME280_temperature;BME280_humidity;BME280_pressure;Samples;Min_cycle;Max_cycle;Signal;HPM_P1;HPM_P2
2024/02/18 00:01:19;;;;;;;2.60;2.00;;;;;;;5.30;87.47;98061.52;108705;1268;25504;-73
2024/02/18 00:03:59;;;;;;;2.60;1.70;;;;;;;5.28;87.20;98064.48;108699;1272;25336;-73
2024/02/18 00:06:30;;;;;;;2.60;2.10;;;;;;;5.25;86.89;98062.20;108705;1272;22601;-74
2024/02/18 00:09:05;;;;;;;3.00;2.10;;;;;;;5.22;86.61;98066.42;108624;1265;22582;-74
2024/02/18 00:11:37;;;;;;;4.20;2.30;;;;;;;5.18;86.48;98066.41;108732;1272;25439;-74
2024/02/18 00:14:08;;;;;;;3.70;2.40;;;;;;;5.15;86.49;98065.98;108666;1266;22540;-73
2024/02/18 00:16:40;;;;;;;3.50;2.10;;;;;;;5.16;86.51;98068.16;108507;1272;126012;-74
2024/02/18 00:19:11;;;;;;;2.90;1.70;;;;;;;5.19;86.38;98073.69;108598;1272;22580;-73
2024/02/18 00:21:43;;;;;;;3.10;1.80;;;;;;;5.19;86.19;98074.21;108684;1262;22551;-74
2024/02/18 00:24:15;;;;;;;3.90;2.30;;;;;;;5.06;85.96;98072.13;108682;1272;22581;-73
2024/02/18 00:26:52;;;;;;;3.50;2.50;;;;;;;4.93;85.97;98081.26;108736;1272;22647;-74
2024/02/18 00:29:23;;;;;;;4.60;2.40;;;;;;;4.84;85.95;98078.12;108719;1268;22536;-74
2024/02/18 00:31:57;;;;;;;2.90;2.20;;;;;;;4.78;86.00;98082.70;108704;1268;22533;-73
2024/02/18 00:34:31;;;;;;;4.20;2.70;;;;;;;4.81;86.14;98095.77;108750;1272;23115;-73
2024/02/18 00:37:05;;;;;;;5.40;3.20;;;;;;;4.85;86.20;98088.79;108700;1272;22550;-73
2024/02/18 00:39:36;;;;;;;3.70;2.30;;;;;;;4.79;85.98;98098.55;108748;1272;25396;-73
2024/02/18 00:42:10;;;;;;;3.90;2.60;;;;;;;4.80;86.02;98098.79;108691;1268;22564;-74
2024/02/18 00:44:41;;;;;;;4.20;3.00;;;;;;;4.72;85.84;98107.55;108710;1272;22571;-73
2024/02/18 00:47:13;;;;;;;4.00;2.40;;;;;;;4.62;85.88;98114.80;108674;1269;22554;-73
2024/02/18 00:49:44;;;;;;;3.50;2.40;;;;;;;4.65;85.99;98119.13;108629;1268;24390;-74
2024/02/18 00:52:18;;;;;;;4.00;2.50;;;;;;;4.69;86.03;98110.80;108724;1272;22564;-74
2024/02/18 00:54:49;;;;;;;5.70;2.00;;;;;;;4.65;85.47;98110.47;108647;1272;22549;-73
2024/02/18 00:57:20;;;;;;;4.90;2.10;;;;;;;4.53;85.13;98111.13;108710;1272;22718;-74
2024/02/18 00:59:51;;;;;;;3.00;2.20;;;;;;;4.45;85.01;98115.08;108734;1272;24930;-73
2024/02/18 01:02:23;;;;;;;3.90;1.90;;;;;;;4.40;84.60;98112.98;108696;1268;22525;-74
2024/02/18 01:04:54;;;;;;;3.60;2.00;;;;;;;4.33;84.52;98114.73;108778;1272;24373;-73
2024/02/18 01:07:26;;;;;;;2.70;1.60;;;;;;;4.29;84.26;98122.84;108708;1272;23478;-73
2024/02/18 01:09:57;;;;;;;2.80;2.00;;;;;;;4.28;83.99;98119.92;108642;1268;24115;-73
2024/02/18 01:12:28;;;;;;;4.00;2.20;;;;;;;4.25;83.90;98124.98;108663;1272;24469;-73
2024/02/18 01:14:59;;;;;;;2.70;1.70;;;;;;;4.22;83.58;98131.66;108697;1270;22521;-73
2024/02/18 01:17:31;;;;;;;3.50;2.00;;;;;;;4.19;83.11;98127.49;108766;1272;22522;-74
2024/02/18 01:20:06;;;;;;;5.40;3.10;;;;;;;4.17;83.05;98131.33;108588;1272;22547;-74
2024/02/18 01:22:39;;;;;;;4.30;2.50;;;;;;;4.17;82.97;98131.20;108717;1269;22519;-73
2024/02/18 01:25:11;;;;;;;4.90;2.50;;;;;;;4.15;83.04;98129.15;108644;1272;22537;-74
2024/02/18 01:27:43;;;;;;;4.00;2.80;;;;;;;4.15;82.87;98127.62;108643;1272;24139;-73
2024/02/18 01:30:20;;;;;;;4.90;2.70;;;;;;;4.15;82.59;98134.28;108610;1272;22532;-73
2024/02/18 01:32:51;;;;;;;4.10;1.90;;;;;;;4.15;82.73;98131.98;108692;1272;22533;-73
2024/02/18 01:35:22;;;;;;;3.70;2.50;;;;;;;4.13;82.52;98128.11;108657;1268;22556;-74
2024/02/18 01:37:54;;;;;;;3.20;2.20;;;;;;;4.13;82.65;98128.96;108687;1258;22532;-74
2024/02/18 01:40:25;;;;;;;3.80;2.40;;;;;;;4.15;82.71;98132.91;108773;1271;23280;-73
2024/02/18 01:42:58;;;;;;;2.10;1.50;;;;;;;4.16;82.53;98131.01;108713;1272;25262;-73
2024/02/18 01:45:30;;;;;;;3.00;1.90;;;;;;;4.12;82.09;98132.51;108741;1272;22604;-73
2024/02/18 01:48:01;;;;;;;4.90;2.00;;;;;;;4.10;81.87;98134.98;108727;1272;22556;-73
2024/02/18 01:50:33;;;;;;;3.90;2.40;;;;;;;4.07;81.70;98134.78;108727;1268;22514;-74
2024/02/18 01:53:06;;;;;;;5.90;2.50;;;;;;;4.06;81.63;98146.86;108706;1272;22597;-73
2024/02/18 01:55:40;;;;;;;3.10;1.80;;;;;;;4.05;81.55;98141.92;108739;1272;24225;-74
2024/02/18 01:58:11;;;;;;;3.60;2.10;;;;;;;4.02;81.43;98138.05;108736;1269;22547;-73
2024/02/18 02:00:43;;;;;;;4.40;1.80;;;;;;;4.00;81.34;98145.20;108682;1260;22578;-74
2024/02/18 02:03:17;;;;;;;5.40;2.30;;;;;;;3.99;81.17;98142.20;108745;1272;22533;-73
2024/02/18 02:05:50;;;;;;;5.60;2.50;;;;;;;3.98;81.18;98144.59;108740;1272;22548;-74
2024/02/18 02:08:22;;;;;;;3.70;2.10;;;;;;;3.98;81.23;98148.22;108755;1271;22553;-73
2024/02/18 02:10:56;;;;;;;3.50;2.70;;;;;;;3.98;81.09;98148.09;108646;1269;23006;-73
2024/02/18 02:13:27;;;;;;;6.20;2.20;;;;;;;3.96;81.06;98144.27;108695;1268;24244;-73
2024/02/18 02:15:59;;;;;;;4.80;2.40;;;;;;;3.95;80.89;98148.30;108726;1272;23510;-74
2024/02/18 02:18:30;;;;;;;4.90;2.50;;;;;;;3.95;80.85;98144.46;108647;1272;22541;-73
2024/02/18 02:21:01;;;;;;;4.40;2.00;;;;;;;3.93;80.71;98138.19;108729;1272;22536;-74
2024/02/18 02:23:35;;;;;;;3.80;2.20;;;;;;;3.90;80.50;98138.79;108724;1271;22562;-74
2024/02/18 02:26:11;;;;;;;3.10;2.00;;;;;;;3.89;80.54;98140.15;108763;1266;22529;-73
2024/02/18 02:28:50;;;;;;;4.10;2.40;;;;;;;3.88;80.63;98141.45;108739;1269;22544;-73
2024/02/18 02:31:21;;;;;;;5.90;3.00;;;;;;;3.86;80.61;98142.41;108636;1271;22532;-73
2024/02/18 02:33:53;;;;;;;4.20;2.30;;;;;;;3.85;80.70;98137.61;108696;1272;22520;-73
2024/02/18 02:36:24;;;;;;;3.90;2.20;;;;;;;3.85;80.75;98136.11;108700;1271;22569;-73
2024/02/18 02:38:55;;;;;;;4.10;2.70;;;;;;;3.83;80.74;98137.81;108737;1271;22530;-74
2024/02/18 02:41:26;;;;;;;3.60;2.60;;;;;;;3.85;81.02;98139.98;108674;1269;22578;-73
2024/02/18 02:43:57;;;;;;;4.30;2.40;;;;;;;3.86;81.12;98132.81;108716;1269;22510;-73
2024/02/18 02:46:29;;;;;;;3.50;2.80;;;;;;;3.85;80.97;98136.92;108696;1270;22535;-73
2024/02/18 02:49:00;;;;;;;3.50;2.40;;;;;;;3.86;81.14;98138.98;108706;1271;22532;-73
2024/02/18 02:51:31;;;;;;;5.70;3.00;;;;;;;3.87;81.20;98139.63;108615;1271;22571;-74
2024/02/18 02:54:05;;;;;;;4.00;2.60;;;;;;;3.86;81.04;98141.73;108640;1271;23415;-73
2024/02/18 02:56:36;;;;;;;4.90;2.50;;;;;;;3.84;80.76;98146.52;108693;1271;22527;-73
2024/02/18 02:59:09;;;;;;;5.10;2.60;;;;;;;3.83;80.79;98150.31;108689;1272;22555;-74
2024/02/18 03:01:41;;;;;;;6.70;2.00;;;;;;;3.82;80.61;98152.02;108662;1271;22529;-73
2024/02/18 03:04:15;;;;;;;2.90;2.00;;;;;;;3.80;80.44;98147.36;108758;1267;22532;-74
2024/02/18 03:06:47;;;;;;;4.20;2.00;;;;;;;3.79;80.27;98148.35;108690;1271;22533;-73
2024/02/18 03:09:18;;;;;;;3.90;2.50;;;;;;;3.79;80.21;98151.36;108687;1272;22571;-73
2024/02/18 03:11:49;;;;;;;3.40;2.70;;;;;;;3.76;79.90;98152.74;108711;1271;22531;-73
2024/02/18 03:14:21;;;;;;;4.80;3.10;;;;;;;3.75;79.79;98153.88;108624;1272;22535;-74
2024/02/18 03:16:52;;;;;;;4.30;2.60;;;;;;;3.74;79.64;98155.36;108691;1271;22711;-73
2024/02/18 03:19:24;;;;;;;3.30;2.40;;;;;;;3.73;79.36;98154.59;108675;1266;22531;-73
2024/02/18 03:21:55;;;;;;;5.10;2.70;;;;;;;3.73;79.17;98157.42;108721;1271;22535;-74
2024/02/18 03:24:26;;;;;;;3.80;2.70;;;;;;;3.75;79.23;98159.39;108655;1271;22553;-73
2024/02/18 03:26:57;;;;;;;6.00;2.60;;;;;;;3.77;79.33;98157.70;108700;1265;22544;-74
2024/02/18 03:29:28;;;;;;;5.10;2.40;;;;;;;3.80;79.39;98160.73;108656;1271;22835;-74
2024/02/18 03:31:59;;;;;;;3.80;2.20;;;;;;;3.83;79.45;98166.39;108761;1269;22545;-74
2024/02/18 03:34:35;;;;;;;4.10;1.80;;;;;;;3.86;79.30;98161.54;108661;1271;22540;-74
2024/02/18 03:37:06;;;;;;;3.50;2.00;;;;;;;3.87;79.17;98163.96;108704;1267;24421;-74
2024/02/18 03:39:38;;;;;;;5.30;2.60;;;;;;;3.88;79.05;98164.73;108698;1272;22524;-74
2024/02/18 03:42:09;;;;;;;3.40;1.90;;;;;;;3.89;79.13;98165.98;108700;1271;22549;-74
2024/02/18 03:44:45;;;;;;;5.00;2.50;;;;;;;3.90;79.15;98169.17;108690;1265;22539;-74
2024/02/18 03:47:16;;;;;;;2.40;2.10;;;;;;;3.93;79.28;98173.91;108732;1271;22534;-73
2024/02/18 03:49:49;;;;;;;3.90;2.30;;;;;;;3.89;78.86;98171.07;108631;1266;22557;-74
2024/02/18 03:52:23;;;;;;;4.80;2.40;;;;;;;3.85;78.70;98170.70;108591;1269;24215;-74
2024/02/18 03:54:54;;;;;;;5.00;2.60;;;;;;;3.84;78.76;98173.38;108638;1271;22531;-74
2024/02/18 03:57:25;;;;;;;5.40;3.10;;;;;;;3.85;78.75;98173.80;108734;1271;22550;-74
2024/02/18 03:59:56;;;;;;;6.40;3.40;;;;;;;3.86;78.91;98172.27;108702;1271;22661;-73
2024/02/18 04:02:27;;;;;;;5.90;3.30;;;;;;;3.84;78.63;98170.86;108742;1272;22522;-74
2024/02/18 04:04:58;;;;;;;5.50;3.40;;;;;;;3.80;78.52;98168.89;108698;1271;22538;-74
2024/02/18 04:07:29;;;;;;;5.30;3.20;;;;;;;3.74;78.30;98172.80;108726;1272;22598;-73
2024/02/18 04:10:00;;;;;;;5.50;2.70;;;;;;;3.65;78.16;98170.86;108694;1271;22547;-73
2024/02/18 04:12:33;;;;;;;5.40;3.40;;;;;;;3.56;77.82;98177.77;108684;1258;22559;-74
2024/02/18 04:15:07;;;;;;;4.60;3.30;;;;;;;3.53;77.98;98177.92;108757;1268;22555;-73
2024/02/18 04:17:38;;;;;;;6.10;3.70;;;;;;;3.56;77.96;98178.41;108744;1271;22542;-74
2024/02/18 04:20:14;;;;;;;5.80;2.80;;;;;;;3.58;78.06;98182.36;108708;1271;25389;-74
2024/02/18 04:22:48;;;;;;;6.20;3.20;;;;;;;3.58;77.98;98181.13;108732;1271;22547;-74
2024/02/18 04:25:21;;;;;;;4.30;2.40;;;;;;;3.56;77.94;98176.52;108705;1271;22540;-73
2024/02/18 04:27:52;;;;;;;6.80;3.90;;;;;;;3.48;77.37;98172.31;108734;1267;22557;-73
2024/02/18 04:30:23;;;;;;;5.20;2.80;;;;;;;3.42;77.56;98170.52;108765;1271;25421;-74
2024/02/18 04:32:54;;;;;;;6.10;3.30;;;;;;;3.41;77.69;98171.27;108687;1271;22530;-73
2024/02/18 04:35:25;;;;;;;6.60;3.40;;;;;;;3.38;77.63;98170.42;108741;1271;25246;-74
2024/02/18 04:37:56;;;;;;;7.30;3.60;;;;;;;3.37;77.67;98171.45;108744;1272;23510;-74
2024/02/18 04:40:27;;;;;;;4.90;3.00;;;;;;;3.38;77.75;98171.34;108653;1267;22562;-74
2024/02/18 04:42:58;;;;;;;4.80;2.80;;;;;;;3.41;77.78;98175.20;108668;1269;22640;-74
2024/02/18 04:45:29;;;;;;;6.30;2.90;;;;;;;3.43;77.82;98175.73;108634;1267;22556;-73
2024/02/18 04:48:00;;;;;;;4.30;2.50;;;;;;;3.47;77.94;98173.80;108666;1272;26434;-74
2024/02/18 04:50:34;;;;;;;5.00;3.00;;;;;;;3.47;77.68;98178.20;108772;1267;24007;-74
2024/02/18 04:53:06;;;;;;;6.40;3.20;;;;;;;3.46;77.63;98180.29;108701;1271;22524;-74
2024/02/18 04:55:37;;;;;;;5.10;3.00;;;;;;;3.44;77.56;98176.89;108725;1271;25423;-74
2024/02/18 04:58:10;;;;;;;4.40;3.30;;;;;;;3.41;77.46;98177.40;108670;1271;24226;-73
2024/02/18 05:00:41;;;;;;;4.70;2.80;;;;;;;3.34;77.24;98183.24;108770;1267;26486;-73
2024/02/18 05:03:14;;;;;;;6.40;3.50;;;;;;;3.33;77.29;98182.08;108725;1268;23469;-74
2024/02/18 05:05:45;;;;;;;5.50;3.10;;;;;;;3.35;77.43;98179.86;108766;1267;25433;-74
2024/02/18 05:08:17;;;;;;;5.60;3.20;;;;;;;3.38;77.34;98183.60;108711;1271;22526;-73
2024/02/18 05:10:48;;;;;;;6.70;3.10;;;;;;;3.38;77.28;98185.33;108707;1268;22552;-73
2024/02/18 05:13:19;;;;;;;4.60;3.10;;;;;;;3.37;77.22;98189.02;108771;1269;23334;-74
2024/02/18 05:15:51;;;;;;;5.80;2.70;;;;;;;3.37;77.26;98191.73;108775;1268;24204;-73
2024/02/18 05:18:23;;;;;;;5.10;2.90;;;;;;;3.37;77.29;98184.39;108742;1271;22524;-74
2024/02/18 05:20:55;;;;;;;5.80;3.20;;;;;;;3.36;76.98;98184.90;108708;1266;25359;-74
2024/02/18 05:23:26;;;;;;;3.90;3.10;;;;;;;3.36;77.05;98189.59;108717;1271;22609;-73
2024/02/18 05:25:57;;;;;;;6.20;3.50;;;;;;;3.33;77.08;98191.39;108678;1270;22547;-74
2024/02/18 05:28:30;;;;;;;6.20;3.40;;;;;;;3.32;77.00;98189.09;108710;1271;24156;-73
2024/02/18 05:31:19;;;;;;;4.90;2.80;;;;;;;3.30;76.96;98190.77;108734;1271;25319;-73
2024/02/18 05:33:50;;;;;;;6.00;3.50;;;;;;;3.26;76.91;98194.84;108739;1271;25332;-74
2024/02/18 05:36:21;;;;;;;4.20;3.40;;;;;;;3.24;76.80;98195.42;108775;1271;22551;-73
2024/02/18 05:38:52;;;;;;;6.20;3.80;;;;;;;3.26;76.90;98197.52;108716;1270;22552;-74
2024/02/18 05:41:24;;;;;;;7.20;3.20;;;;;;;3.27;76.82;98198.19;108701;1267;23204;-74
2024/02/18 05:43:55;;;;;;;6.00;2.80;;;;;;;3.29;76.89;98199.60;108795;1271;22536;-73
2024/02/18 05:46:29;;;;;;;4.20;2.80;;;;;;;3.32;76.77;98201.67;108772;1271;22532;-74
2024/02/18 05:49:00;;;;;;;7.70;4.00;;;;;;;3.34;76.72;98205.22;108735;1269;22530;-73
2024/02/18 05:51:33;;;;;;;6.30;3.40;;;;;;;3.33;76.69;98204.58;108770;1272;22585;-74
2024/02/18 05:54:04;;;;;;;6.20;3.60;;;;;;;3.33;76.57;98204.70;108741;1272;22536;-74
2024/02/18 05:56:35;;;;;;;4.50;3.60;;;;;;;3.30;76.54;98202.19;108737;1272;22550;-73
2024/02/18 05:59:10;;;;;;;4.70;3.20;;;;;;;3.29;76.43;98201.81;108713;1271;22528;-74
2024/02/18 06:01:41;;;;;;;4.50;3.00;;;;;;;3.31;76.23;98195.09;108840;1264;22552;-73
2024/02/18 06:04:12;;;;;;;5.60;3.80;;;;;;;3.35;76.16;98196.89;108792;1271;24215;-73
2024/02/18 06:06:43;;;;;;;6.60;4.20;;;;;;;3.38;76.20;98197.52;108904;1267;22570;-74
2024/02/18 06:09:18;;;;;;;4.60;3.20;;;;;;;3.41;76.37;98201.16;108784;1270;22539;-74
2024/02/18 06:11:49;;;;;;;7.30;4.50;;;;;;;3.43;76.27;98199.56;108733;1260;24218;-74
2024/02/18 06:14:20;;;;;;;5.50;3.70;;;;;;;3.38;76.18;98201.59;108726;1271;22541;-73
2024/02/18 06:16:52;;;;;;;5.40;2.60;;;;;;;3.35;76.08;98195.58;108761;1271;22547;-73
2024/02/18 06:19:25;;;;;;;6.10;3.40;;;;;;;3.42;76.27;98199.35;108659;1266;25444;-74
2024/02/18 06:21:56;;;;;;;4.80;3.60;;;;;;;3.44;76.18;98201.09;108713;1264;22541;-74
2024/02/18 06:24:28;;;;;;;5.80;4.20;;;;;;;3.44;76.07;98205.02;108667;1271;22532;-73
2024/02/18 06:26:59;;;;;;;6.30;3.80;;;;;;;3.43;75.96;98206.02;108760;1271;22622;-74
2024/02/18 06:29:31;;;;;;;7.40;4.10;;;;;;;3.42;75.96;98206.13;108750;1271;23571;-74
2024/02/18 06:32:09;;;;;;;6.50;4.10;;;;;;;3.47;76.14;98207.73;108718;1271;22582;-74
2024/02/18 06:34:43;;;;;;;5.90;4.00;;;;;;;3.52;76.05;98205.90;108695;1266;22664;-74
2024/02/18 06:37:15;;;;;;;4.30;3.50;;;;;;;3.55;76.06;98203.78;108715;1271;22525;-73
2024/02/18 06:39:46;;;;;;;5.60;3.10;;;;;;;3.50;75.98;98202.85;108665;1271;22543;-73
2024/02/18 06:42:18;;;;;;;6.90;3.80;;;;;;;3.45;76.19;98206.91;108654;1270;22548;-74
2024/02/18 06:44:49;;;;;;;6.30;4.00;;;;;;;3.45;76.13;98212.23;108768;1265;22547;-73
2024/02/18 06:47:21;;;;;;;6.50;4.20;;;;;;;3.45;76.31;98210.81;108706;1268;22634;-73
2024/02/18 06:49:52;;;;;;;6.60;4.60;;;;;;;3.47;76.46;98213.90;108732;1265;22545;-74
2024/02/18 06:52:23;;;;;;;6.50;4.10;;;;;;;3.52;76.40;98218.69;108702;1272;22724;-74
2024/02/18 06:54:56;;;;;;;5.30;3.20;;;;;;;3.56;76.45;98214.80;108741;1265;24351;-74
2024/02/18 06:57:29;;;;;;;4.90;3.20;;;;;;;3.64;76.53;98217.89;108722;1271;22527;-74
2024/02/18 07:00:01;;;;;;;6.60;3.70;;;;;;;3.71;76.57;98219.95;108654;1247;22579;-74
2024/02/18 07:02:32;;;;;;;7.30;4.70;;;;;;;3.81;76.64;98221.65;108693;1265;22539;-74
2024/02/18 07:05:04;;;;;;;9.40;5.20;;;;;;;3.87;76.54;98226.08;108769;1267;23887;-75
2024/02/18 07:07:40;;;;;;;8.30;5.50;;;;;;;3.97;76.73;98226.41;108649;1271;22528;-74
2024/02/18 07:10:12;;;;;;;6.80;4.60;;;;;;;4.05;76.49;98226.67;108736;1271;24233;-74
2024/02/18 07:12:45;;;;;;;6.00;4.50;;;;;;;4.10;76.37;98224.40;108717;1267;22535;-73
2024/02/18 07:15:21;;;;;;;7.80;5.20;;;;;;;4.19;76.41;98224.05;108760;1267;22868;-73
2024/02/18 07:17:52;;;;;;;8.90;4.90;;;;;;;4.26;76.50;98224.89;108733;1271;22536;-73
2024/02/18 07:20:27;;;;;;;8.10;4.40;;;;;;;4.23;76.08;98227.45;108788;1271;23851;-74
2024/02/18 07:22:59;;;;;;;7.70;4.60;;;;;;;4.13;75.99;98224.08;108701;1264;25706;-74
2024/02/18 07:25:30;;;;;;;8.00;5.10;;;;;;;4.08;76.11;98227.41;108811;1255;24392;-74
2024/02/18 07:28:02;;;;;;;10.00;5.30;;;;;;;4.01;76.21;98229.05;108761;1271;22610;-74
2024/02/18 07:30:33;;;;;;;10.20;4.80;;;;;;;3.97;76.35;98228.11;108737;1271;24320;-74
2024/02/18 07:33:05;;;;;;;8.00;4.70;;;;;;;3.96;76.29;98228.42;108766;1267;22640;-74
2024/02/18 07:35:40;;;;;;;7.90;5.30;;;;;;;3.98;76.47;98232.63;108777;1271;22527;-74
2024/02/18 07:38:13;;;;;;;9.20;5.50;;;;;;;3.96;76.47;98230.88;108730;1267;22576;-73
2024/02/18 07:40:45;;;;;;;8.40;5.00;;;;;;;3.94;76.77;98236.08;108713;1271;22547;-73
2024/02/18 07:43:16;;;;;;;7.60;4.30;;;;;;;3.93;76.79;98231.42;108731;1271;22648;-74
2024/02/18 07:45:47;;;;;;;9.90;6.10;;;;;;;3.94;76.84;98233.29;108708;1265;22669;-74
2024/02/18 07:48:19;;;;;;;9.90;5.60;;;;;;;3.95;76.97;98233.15;108714;1271;22602;-73
2024/02/18 07:50:52;;;;;;;9.90;5.50;;;;;;;3.92;76.92;98242.11;108701;1271;24228;-74
2024/02/18 07:53:23;;;;;;;8.30;4.50;;;;;;;3.86;76.85;98244.96;108730;1265;25320;-74
2024/02/18 07:55:54;;;;;;;8.90;5.30;;;;;;;3.80;77.16;98246.06;108774;1271;22584;-74
2024/02/18 07:58:25;;;;;;;10.50;5.40;;;;;;;3.75;77.12;98246.15;108698;1265;22527;-74
2024/02/18 08:00:57;;;;;;;8.90;4.70;;;;;;;3.70;77.28;98243.84;108776;1271;22589;-74
2024/02/18 08:03:28;;;;;;;24.70;14.20;;;;;;;3.68;77.42;98249.36;108723;1271;23360;-74
2024/02/18 08:05:59;;;;;;;65.20;37.10;;;;;;;3.66;77.64;98246.30;108732;1271;26334;-74
2024/02/18 08:08:30;;;;;;;13.00;8.00;;;;;;;3.66;77.83;98249.95;108751;1271;24447;-74
2024/02/18 08:11:02;;;;;;;10.70;6.00;;;;;;;3.69;77.87;98252.96;108684;1265;22583;-74
2024/02/18 08:13:36;;;;;;;10.60;6.20;;;;;;;3.74;78.05;98248.34;108782;1271;23607;-73
2024/02/18 08:16:08;;;;;;;8.80;5.60;;;;;;;3.80;77.96;98251.27;108713;1271;22553;-74
2024/02/18 08:18:40;;;;;;;9.70;5.80;;;;;;;3.83;78.07;98252.83;108708;1271;22612;-73
2024/02/18 08:21:11;;;;;;;10.50;6.00;;;;;;;3.85;77.87;98250.61;108757;1271;25237;-74
2024/02/18 08:23:45;;;;;;;13.60;9.30;;;;;;;3.78;77.74;98248.17;108718;1268;22536;-73
2024/02/18 08:26:24;;;;;;;9.90;6.20;;;;;;;3.85;78.03;98251.74;108721;1268;25406;-74
2024/02/18 08:28:56;;;;;;;9.60;6.10;;;;;;;3.94;77.83;98247.79;108731;1271;22563;-74
2024/02/18 08:31:29;;;;;;;11.00;6.20;;;;;;;3.94;77.72;98250.73;108674;1271;22533;-74
2024/02/18 08:34:01;;;;;;;8.90;5.60;;;;;;;3.96;77.60;98252.39;108732;1271;22540;-74
2024/02/18 08:36:35;;;;;;;10.20;6.00;;;;;;;4.10;78.11;98255.11;108785;1269;23028;-74
2024/02/18 08:39:07;;;;;;;11.10;7.00;;;;;;;4.21;77.83;98259.14;108737;1271;23298;-73
2024/02/18 08:41:38;;;;;;;10.10;6.40;;;;;;;4.17;77.53;98259.17;108711;1271;24222;-73
2024/02/18 08:44:09;;;;;;;9.50;6.50;;;;;;;4.11;77.41;98255.20;108735;1271;22541;-74
2024/02/18 08:46:41;;;;;;;9.10;5.30;;;;;;;4.09;77.48;98252.50;108764;1265;22540;-74
2024/02/18 08:49:14;;;;;;;6.80;4.90;;;;;;;4.20;77.86;98260.08;108713;1264;22587;-74
2024/02/18 08:51:45;;;;;;;7.50;4.80;;;;;;;4.29;77.64;98257.48;108805;1256;22527;-74
2024/02/18 08:54:19;;;;;;;6.70;4.80;;;;;;;4.37;77.80;98263.65;108829;1271;22697;-75
2024/02/18 08:56:50;;;;;;;8.40;4.80;;;;;;;4.29;77.48;98264.64;108823;1270;22574;-75
2024/02/18 08:59:21;;;;;;;9.20;6.20;;;;;;;4.34;77.73;98263.95;108739;1270;41148;-75
2024/02/18 09:01:59;;;;;;;10.30;6.80;;;;;;;4.37;77.60;98268.51;108741;1271;24293;-75
2024/02/18 09:04:35;;;;;;;13.10;7.20;;;;;;;4.35;77.56;98268.75;108746;1271;22918;-75
2024/02/18 09:07:07;;;;;;;26.30;13.60;;;;;;;4.33;77.40;98272.64;108761;1271;22541;-75
2024/02/18 09:09:40;;;;;;;25.60;12.10;;;;;;;4.33;77.60;98272.11;108713;1265;22649;-75
2024/02/18 09:12:14;;;;;;;22.30;9.80;;;;;;;4.35;77.70;98271.83;108698;1271;22556;-75
2024/02/18 09:14:48;;;;;;;14.70;9.30;;;;;;;4.39;77.72;98272.95;108786;1264;24272;-75
2024/02/18 09:17:22;;;;;;;18.30;10.00;;;;;;;4.43;77.66;98269.04;108724;1265;24920;-75
2024/02/18 09:19:55;;;;;;;8.70;5.80;;;;;;;4.50;77.51;98274.80;108745;1272;22544;-75
2024/02/18 09:22:26;;;;;;;12.00;6.40;;;;;;;4.54;77.40;98278.90;108771;1268;24213;-75
2024/02/18 09:24:57;;;;;;;9.00;5.50;;;;;;;4.59;77.32;98277.40;108681;1265;22529;-72
2024/02/18 09:27:28;;;;;;;7.70;5.70;;;;;;;4.59;77.09;98276.63;108758;1268;22717;-74
2024/02/18 09:29:59;;;;;;;8.20;5.30;;;;;;;4.64;76.81;98279.27;108716;1271;22549;-74
2024/02/18 09:32:33;;;;;;;8.70;5.10;;;;;;;4.67;76.79;98282.92;108778;1265;22707;-74
2024/02/18 09:35:05;;;;;;;11.80;5.10;;;;;;;4.71;76.87;98284.22;108718;1271;22537;-74
2024/02/18 09:37:38;;;;;;;6.30;4.10;;;;;;;4.80;77.13;98282.86;108756;1271;22538;-74
2024/02/18 09:40:12;;;;;;;6.60;4.90;;;;;;;4.83;76.54;98279.99;108704;1271;22737;-74
2024/02/18 09:42:45;;;;;;;6.80;4.70;;;;;;;4.77;76.42;98277.80;108800;1247;22544;-74
2024/02/18 09:45:16;;;;;;;7.00;4.50;;;;;;;4.72;76.45;98274.44;108770;1271;22610;-74
2024/02/18 09:47:48;;;;;;;5.60;3.90;;;;;;;4.74;76.44;98273.23;108719;1271;24330;-74
2024/02/18 09:50:20;;;;;;;6.60;3.70;;;;;;;4.78;76.42;98269.80;108729;1271;22612;-74
2024/02/18 09:52:52;;;;;;;5.00;3.40;;;;;;;4.85;76.47;98263.42;108760;1271;22523;-74
2024/02/18 09:55:25;;;;;;;6.20;4.10;;;;;;;4.91;76.23;98264.86;108727;1265;22546;-74
2024/02/18 09:57:56;;;;;;;6.10;4.40;;;;;;;4.88;75.71;98261.27;108759;1271;22619;-74
2024/02/18 10:00:27;;;;;;;6.00;4.30;;;;;;;4.62;75.09;98261.17;108669;1270;24495;-74
2024/02/18 10:02:58;;;;;;;8.10;4.70;;;;;;;4.60;75.49;98259.59;108763;1271;25591;-74
2024/02/18 10:05:30;;;;;;;6.60;4.00;;;;;;;4.73;75.52;98256.45;108758;1271;22546;-73
2024/02/18 10:08:06;;;;;;;7.40;4.40;;;;;;;4.80;75.71;98252.70;108788;1271;22530;-73
2024/02/18 10:10:38;;;;;;;7.10;4.00;;;;;;;5.10;75.89;98252.15;108712;1271;25612;-74
2024/02/18 10:13:10;;;;;;;8.80;4.60;;;;;;;5.11;75.07;98243.50;108750;1271;23035;-74
2024/02/18 10:15:42;;;;;;;7.40;4.10;;;;;;;5.02;74.56;98241.44;108702;1265;22710;-74
2024/02/18 10:18:19;;;;;;;6.50;4.00;;;;;;;4.78;74.25;98241.79;108725;1271;26251;-74
2024/02/18 10:20:54;;;;;;;7.70;4.90;;;;;;;4.63;74.05;98238.45;108696;1265;22543;-74
2024/02/18 10:23:29;;;;;;;7.00;4.90;;;;;;;4.47;73.70;98233.48;108793;1271;24239;-73
2024/02/18 10:26:04;;;;;;;7.10;4.50;;;;;;;4.39;73.54;98232.20;108738;1264;22541;-73
2024/02/18 10:28:40;;;;;;;7.00;4.10;;;;;;;4.50;73.74;98225.23;108757;1271;25387;-74
2024/02/18 10:31:12;;;;;;;7.70;5.00;;;;;;;4.62;73.58;98228.11;108740;1268;22566;-74
2024/02/18 10:33:46;;;;;;;7.10;4.10;;;;;;;4.66;73.42;98219.64;108709;1261;22600;-73
2024/02/18 10:36:22;;;;;;;7.40;4.30;;;;;;;4.76;73.76;98217.85;108731;1268;22523;-73
2024/02/18 10:39:03;;;;;;;7.20;4.60;;;;;;;4.91;73.86;98219.40;108678;1265;22538;-74
2024/02/18 10:41:41;;;;;;;7.40;4.20;;;;;;;5.17;74.13;98217.82;108682;1268;22536;-74
2024/02/18 10:44:18;;;;;;;6.00;4.10;;;;;;;5.27;73.67;98210.84;108732;1268;22568;-74
2024/02/18 10:46:51;;;;;;;6.40;4.70;;;;;;;5.25;72.97;98203.97;108696;1271;24453;-73
2024/02/18 10:49:31;;;;;;;5.90;4.10;;;;;;;5.03;72.28;98201.85;108720;1271;25412;-74
2024/02/18 10:52:14;;;;;;;7.80;4.80;;;;;;;4.75;72.09;98197.81;108794;1271;22549;-73
2024/02/18 10:54:54;;;;;;;7.50;4.20;;;;;;;4.76;72.91;98196.99;108702;1271;22874;-73
2024/02/18 10:57:30;;;;;;;8.10;4.40;;;;;;;4.71;72.48;98188.88;108675;1271;22624;-73
2024/02/18 11:00:05;;;;;;;6.40;4.40;;;;;;;4.63;72.46;98187.34;108739;1269;24199;-73
2024/02/18 11:02:43;;;;;;;6.40;4.00;;;;;;;4.67;72.95;98180.99;108815;1267;22659;-73
2024/02/18 11:05:16;;;;;;;5.90;4.50;;;;;;;4.75;72.87;98172.82;108764;1265;22552;-73
2024/02/18 11:07:48;;;;;;;8.40;4.60;;;;;;;4.84;73.46;98168.86;108759;1265;22567;-73
2024/02/18 11:10:24;;;;;;;7.10;4.50;;;;;;;4.89;72.57;98171.52;108742;1271;22857;-73
2024/02/18 11:12:57;;;;;;;6.90;4.30;;;;;;;4.80;72.51;98165.48;108731;1265;22542;-73
2024/02/18 11:15:29;;;;;;;7.10;5.20;;;;;;;4.85;72.73;98168.39;108918;1265;22560;-74
2024/02/18 11:18:02;;;;;;;8.00;4.50;;;;;;;5.04;72.89;98162.66;108716;1271;27835;-74
2024/02/18 11:20:36;;;;;;;7.30;4.00;;;;;;;5.20;72.27;98161.87;108793;1253;22531;-73
2024/02/18 11:23:09;;;;;;;6.30;4.40;;;;;;;5.21;71.90;98156.00;108728;1265;22594;-73
2024/02/18 11:25:40;;;;;;;6.40;5.10;;;;;;;5.21;71.50;98154.27;108726;1271;22557;-73
2024/02/18 11:28:14;;;;;;;8.50;4.60;;;;;;;5.25;71.72;98150.30;108699;1271;22527;-73
2024/02/18 11:30:48;;;;;;;7.90;5.00;;;;;;;5.28;71.24;98150.23;108654;1271;22551;-73
2024/02/18 11:33:20;;;;;;;9.80;5.70;;;;;;;5.12;70.46;98152.06;108706;1268;24186;-73
2024/02/18 11:36:14;;;;;;;8.40;5.30;;;;;;;5.15;71.22;98154.80;108757;1271;22703;-73
2024/02/18 11:38:47;;;;;;;9.10;4.70;;;;;;;5.39;71.49;98150.45;108737;1271;22554;-73
2024/02/18 11:41:26;;;;;;;6.90;5.70;;;;;;;5.56;71.39;98147.48;108747;1271;24263;-73
2024/02/18 11:44:00;;;;;;;;;;;;;;;5.74;71.60;98141.71;108797;1271;22562;-73
2024/02/18 11:46:43;;;;;;;9.90;4.90;;;;;;;5.88;71.53;98138.38;108717;1265;22684;-73
2024/02/18 11:49:17;;;;;;;6.40;4.30;;;;;;;5.99;71.51;98141.05;108814;1271;22957;-73
2024/02/18 11:51:49;;;;;;;8.10;4.80;;;;;;;5.85;70.67;98140.68;108787;1271;26503;-73
2024/02/18 11:54:20;;;;;;;10.00;5.50;;;;;;;5.76;70.98;98139.22;108755;1271;22525;-74
2024/02/18 11:56:51;;;;;;;9.10;5.30;;;;;;;5.82;70.99;98133.77;108666;1271;22523;-73